createdAt,value
2024-04-15T00:00:37.346Z,25.23
2024-04-15T00:01:37.450Z,25.26
2024-04-15T00:02:37.515Z,25.24
2024-04-15T00:03:37.542Z,25.23
2024-04-15T00:04:37.651Z,25.26
2024-04-15T00:05:37.757Z,25.23
2024-04-15T00:06:37.832Z,25.26
2024-04-15T00:07:37.963Z,25.23
2024-04-15T00:08:38.100Z,25.23
2024-04-15T00:09:38.208Z,25.24
2024-04-15T00:10:38.151Z,25.23
2024-04-15T00:11:38.268Z,25.21
2024-04-15T00:12:38.411Z,25.21
2024-04-15T00:13:38.414Z,25.21
2024-04-15T00:14:38.499Z,25.23
2024-04-15T00:15:38.618Z,25.21
2024-04-15T00:16:38.768Z,25.23
2024-04-15T00:17:38.736Z,25.20
2024-04-15T00:18:39.052Z,25.19
2024-04-15T00:19:38.914Z,25.20
2024-04-15T00:20:38.977Z,25.19
2024-04-15T00:21:39.109Z,25.17
2024-04-15T00:22:39.170Z,25.19
2024-04-15T00:23:39.257Z,25.16
2024-04-15T00:24:39.324Z,25.19
2024-04-15T00:25:39.433Z,25.17
2024-04-15T00:26:39.522Z,25.20
2024-04-15T00:27:39.652Z,25.17
2024-04-15T00:28:39.663Z,25.17
2024-04-15T00:29:39.781Z,25.17
2024-04-15T00:30:39.839Z,25.17
2024-04-15T00:31:39.940Z,25.17
2024-04-15T00:32:40.071Z,25.17
2024-04-15T00:33:40.214Z,25.16
2024-04-15T00:34:40.193Z,25.17
2024-04-15T00:35:40.248Z,25.16
2024-04-15T00:36:40.408Z,25.14
2024-04-15T00:37:40.428Z,25.13
2024-04-15T00:38:40.510Z,25.14
2024-04-15T00:39:40.620Z,25.14
2024-04-15T00:40:40.661Z,25.13
2024-04-15T00:41:40.772Z,25.13
2024-04-15T00:42:40.849Z,25.12
2024-04-15T00:43:40.919Z,25.10
2024-04-15T00:44:40.987Z,25.12
2024-04-15T00:45:41.142Z,25.09
2024-04-15T00:46:41.218Z,25.07
2024-04-15T00:47:41.301Z,25.10
2024-04-15T00:48:41.389Z,25.07
2024-04-15T00:49:41.421Z,25.09
2024-04-15T00:50:41.524Z,25.09
2024-04-15T00:51:41.619Z,25.07
2024-04-15T00:52:41.649Z,25.09
2024-04-15T00:53:41.775Z,25.10
2024-04-15T00:54:41.872Z,25.06
2024-04-15T00:55:41.953Z,25.05
2024-04-15T00:56:41.997Z,25.05
2024-04-15T00:57:42.113Z,25.06
2024-04-15T00:58:42.163Z,25.09
2024-04-15T00:59:42.287Z,25.07
2024-04-15T01:00:42.530Z,25.07
2024-04-15T01:01:42.502Z,25.06
2024-04-15T01:02:42.522Z,25.06
2024-04-15T01:03:43.688Z,25.05
2024-04-15T01:04:42.706Z,25.06
2024-04-15T01:05:42.676Z,25.06
2024-04-15T01:06:42.753Z,25.05
2024-04-15T01:07:42.798Z,25.03
2024-04-15T01:08:42.809Z,25.02
2024-04-15T01:09:42.928Z,25.02
2024-04-15T01:10:51.495Z,25.02
2024-04-15T01:11:43.966Z,25.02
2024-04-15T01:12:42.884Z,25.00
2024-04-15T01:13:42.909Z,24.99
2024-04-15T01:14:42.909Z,24.96
2024-04-15T01:15:42.924Z,24.97
2024-04-15T01:16:42.918Z,24.97
2024-04-15T01:17:43.010Z,25.00
2024-04-15T01:18:42.982Z,24.96
2024-04-15T01:19:42.954Z,24.97
2024-04-15T01:20:42.940Z,24.94
2024-04-15T01:21:42.994Z,24.97
2024-04-15T01:22:42.948Z,24.96
2024-04-15T01:23:43.058Z,24.96
2024-04-15T01:24:43.147Z,24.96
2024-04-15T01:25:43.199Z,24.96
2024-04-15T01:26:43.356Z,24.96
2024-04-15T01:27:43.442Z,24.94
2024-04-15T01:28:43.509Z,24.93
2024-04-15T01:29:43.627Z,24.94
2024-04-15T01:30:43.794Z,24.93
2024-04-15T01:31:43.783Z,24.93
2024-04-15T01:32:43.864Z,24.94
2024-04-15T01:33:43.949Z,24.92
2024-04-15T01:34:44.048Z,24.92
2024-04-15T01:35:44.108Z,24.92
2024-04-15T01:36:44.238Z,24.94
2024-04-15T01:37:44.309Z,24.93
2024-04-15T01:38:44.437Z,24.93
2024-04-15T01:39:44.563Z,24.92
2024-04-15T01:40:44.575Z,24.93
2024-04-15T01:41:44.727Z,24.92
2024-04-15T01:42:44.775Z,24.90
2024-04-15T01:43:44.866Z,24.89
2024-04-15T01:44:44.947Z,24.89
2024-04-15T01:45:45.056Z,24.92
2024-04-15T01:46:45.170Z,24.92
2024-04-15T01:47:45.298Z,24.92
2024-04-15T01:48:45.353Z,24.92
2024-04-15T01:49:45.398Z,24.89
2024-04-15T01:50:45.492Z,24.89
2024-04-15T01:51:45.639Z,24.89
2024-04-15T01:52:45.696Z,24.87
2024-04-15T01:53:45.766Z,24.89
2024-04-15T01:54:45.946Z,24.86
2024-04-15T01:55:45.956Z,24.87
2024-04-15T01:56:46.057Z,24.89
2024-04-15T01:57:46.220Z,24.86
2024-04-15T01:58:46.273Z,24.85
2024-04-15T01:59:46.370Z,24.85
2024-04-15T02:00:46.467Z,24.85
2024-04-15T02:01:46.561Z,24.85
2024-04-15T02:02:46.646Z,24.86
2024-04-15T02:03:46.770Z,24.86
2024-04-15T02:04:46.940Z,24.85
2024-04-15T02:05:46.936Z,24.89
2024-04-15T02:06:47.072Z,24.85
2024-04-15T02:07:47.092Z,24.85
2024-04-15T02:08:47.229Z,24.83
2024-04-15T02:09:47.312Z,24.83
2024-04-15T02:10:47.434Z,24.83
2024-04-15T02:11:47.520Z,24.85
2024-04-15T02:12:47.656Z,24.83
2024-04-15T02:13:47.713Z,24.83
2024-04-15T02:14:47.824Z,24.83
2024-04-15T02:15:48.500Z,24.85
2024-04-15T02:16:47.966Z,24.83
2024-04-15T02:17:47.972Z,24.83
2024-04-15T02:18:48.005Z,24.81
2024-04-15T02:19:47.999Z,24.83
2024-04-15T02:20:48.020Z,24.82
2024-04-15T02:21:48.083Z,24.82
2024-04-15T02:22:48.110Z,24.83
2024-04-15T02:23:48.144Z,24.81
2024-04-15T02:24:48.214Z,24.79
2024-04-15T02:25:48.227Z,24.82
2024-04-15T02:26:48.332Z,24.79
2024-04-15T02:27:48.446Z,24.81
2024-04-15T02:28:48.523Z,24.79
2024-04-15T02:29:48.612Z,24.78
2024-04-15T02:30:48.743Z,24.78
2024-04-15T02:31:48.933Z,24.78
2024-04-15T02:32:48.968Z,24.78
2024-04-15T02:33:49.051Z,24.79
2024-04-15T02:34:49.172Z,24.79
2024-04-15T02:35:49.282Z,24.79
2024-04-15T02:36:49.394Z,24.78
2024-04-15T02:37:49.497Z,24.78
2024-04-15T02:38:49.653Z,24.79
2024-04-15T02:39:49.706Z,24.79
2024-04-15T02:40:49.761Z,24.76
2024-04-15T02:41:49.882Z,24.81
2024-04-15T02:42:49.992Z,24.78
2024-04-15T02:43:50.095Z,24.79
2024-04-15T02:44:50.238Z,24.78
2024-04-15T02:45:50.319Z,24.78
2024-04-15T02:46:50.388Z,24.76
2024-04-15T02:47:50.588Z,24.76
2024-04-15T02:48:50.603Z,24.78
2024-04-15T02:49:50.702Z,24.78
2024-04-15T02:50:50.821Z,24.78
2024-04-15T02:51:50.922Z,24.76
2024-04-15T02:52:51.004Z,24.78
2024-04-15T02:53:51.111Z,24.75
2024-04-15T02:54:51.274Z,24.76
2024-04-15T02:55:51.312Z,24.78
2024-04-15T02:56:51.406Z,24.76
2024-04-15T02:57:51.555Z,24.76
2024-04-15T02:58:51.631Z,24.75
2024-04-15T02:59:51.726Z,24.75
2024-04-15T03:00:51.907Z,24.78
2024-04-15T03:01:51.987Z,24.75
2024-04-15T03:02:52.082Z,24.75
2024-04-15T03:03:52.295Z,24.75
2024-04-15T03:04:52.322Z,24.72
2024-04-15T03:05:52.354Z,24.76
2024-04-15T03:06:52.482Z,24.72
2024-04-15T03:07:52.580Z,24.74
2024-04-15T03:08:52.688Z,24.72
2024-04-15T03:09:52.803Z,24.74
2024-04-15T03:10:52.900Z,24.71
2024-04-15T03:11:53.025Z,24.74
2024-04-15T03:12:53.292Z,24.72
2024-04-15T03:13:53.184Z,24.72
2024-04-15T03:14:53.333Z,24.71
2024-04-15T03:15:53.425Z,24.72
2024-04-15T03:16:53.572Z,24.74
2024-04-15T03:17:53.657Z,24.74
2024-04-15T03:18:53.792Z,24.72
2024-04-15T03:19:53.837Z,24.71
2024-04-15T03:20:53.938Z,24.75
2024-04-15T03:21:54.097Z,24.74
2024-04-15T03:22:54.154Z,24.72
2024-04-15T03:23:54.217Z,24.71
2024-04-15T03:24:54.394Z,24.72
2024-04-15T03:25:54.426Z,24.71
2024-04-15T03:26:54.532Z,24.74
2024-04-15T03:27:54.659Z,24.71
2024-04-15T03:28:54.782Z,24.69
2024-04-15T03:29:54.873Z,24.69
2024-04-15T03:30:54.964Z,24.68
2024-04-15T03:31:55.124Z,24.69
2024-04-15T03:32:55.231Z,24.71
2024-04-15T03:33:55.314Z,24.69
2024-04-15T03:34:55.410Z,24.71
2024-04-15T03:35:55.570Z,24.68
2024-04-15T03:36:55.657Z,24.68
2024-04-15T03:37:55.750Z,24.66
2024-04-15T03:38:55.846Z,24.68
2024-04-15T03:39:57.551Z,24.65
2024-04-15T03:40:55.983Z,24.68
2024-04-15T03:41:56.016Z,24.66
2024-04-15T03:42:56.088Z,24.66
2024-04-15T03:43:56.098Z,24.65
2024-04-15T03:44:56.104Z,24.66
2024-04-15T03:45:56.212Z,24.65
2024-04-15T03:46:56.316Z,24.65
2024-04-15T03:47:56.408Z,24.65
2024-04-15T03:48:56.535Z,24.66
2024-04-15T03:49:56.653Z,24.64
2024-04-15T03:50:56.722Z,24.64
2024-04-15T03:51:56.827Z,24.64
2024-04-15T03:52:56.936Z,24.62
2024-04-15T03:53:57.072Z,24.64
2024-04-15T03:54:57.206Z,24.62
2024-04-15T03:55:57.279Z,24.61
2024-04-15T03:56:57.377Z,24.65
2024-04-15T03:57:57.547Z,24.62
2024-04-15T03:58:57.618Z,24.64
2024-04-15T03:59:57.721Z,24.62
2024-04-15T04:00:57.897Z,24.62
2024-04-15T04:01:58.002Z,24.64
2024-04-15T04:02:58.077Z,24.61
2024-04-15T04:03:58.302Z,24.61
2024-04-15T04:04:58.410Z,24.59
2024-04-15T04:06:09.807Z,24.59
2024-04-15T04:06:59.441Z,24.62
2024-04-15T04:07:58.371Z,24.59
2024-04-15T04:08:58.351Z,24.59
2024-04-15T04:09:58.398Z,24.59
2024-04-15T04:10:58.395Z,24.58
2024-04-15T04:11:58.404Z,24.58
2024-04-15T04:12:58.432Z,24.57
2024-04-15T04:13:58.380Z,24.58
2024-04-15T04:14:58.386Z,24.58
2024-04-15T04:15:58.416Z,24.55
2024-04-15T04:16:58.414Z,24.57
2024-04-15T04:17:58.520Z,24.54
2024-04-15T04:18:58.450Z,24.55
2024-04-15T04:19:58.420Z,24.54
2024-04-15T04:20:58.388Z,24.55
2024-04-15T04:21:58.520Z,24.54
2024-04-15T04:22:58.659Z,24.55
2024-04-15T04:23:58.711Z,24.55
2024-04-15T04:24:58.927Z,24.55
2024-04-15T04:25:58.938Z,24.57
2024-04-15T04:26:59.052Z,24.54
2024-04-15T04:27:59.224Z,24.55
2024-04-15T04:28:59.277Z,24.54
2024-04-15T04:29:59.370Z,24.54
2024-04-15T04:30:59.453Z,24.54
2024-04-15T04:31:59.624Z,24.54
2024-04-15T04:32:59.763Z,24.55
2024-04-15T04:33:59.845Z,24.55
2024-04-15T04:34:59.915Z,24.55
2024-04-15T04:36:00.009Z,24.52
2024-04-15T04:37:00.123Z,24.52
2024-04-15T04:38:00.244Z,24.52
2024-04-15T04:39:00.353Z,24.54
2024-04-15T04:40:00.577Z,24.55
2024-04-15T04:41:00.587Z,24.55
2024-04-15T04:42:00.656Z,24.54
2024-04-15T04:43:00.814Z,24.54
2024-04-15T04:44:00.882Z,24.55
2024-04-15T04:45:00.973Z,24.55
2024-04-15T04:46:01.166Z,24.54
2024-04-15T04:47:01.212Z,24.54
2024-04-15T04:48:01.451Z,24.52
2024-04-15T04:49:01.431Z,24.52
2024-04-15T04:50:01.536Z,24.52
2024-04-15T04:51:01.644Z,24.51
2024-04-15T04:52:08.995Z,24.48
2024-04-15T04:53:08.944Z,24.48
2024-04-15T04:54:08.960Z,24.52
2024-04-15T04:55:08.990Z,24.52
2024-04-15T04:56:08.961Z,24.51
2024-04-15T04:57:08.964Z,24.52
2024-04-15T04:58:09.028Z,24.54
2024-04-15T04:59:08.956Z,24.51
2024-04-15T05:00:08.960Z,24.50
2024-04-15T05:01:09.060Z,24.48
2024-04-15T05:02:09.156Z,24.48
2024-04-15T05:03:09.041Z,24.44
2024-04-15T05:04:09.051Z,24.47
2024-04-15T05:05:09.015Z,24.46
2024-04-15T05:06:09.059Z,24.48
2024-04-15T05:07:09.021Z,24.44
2024-04-15T05:08:08.999Z,24.47
2024-04-15T05:09:11.351Z,24.42
2024-04-15T05:10:09.008Z,24.46
2024-04-15T05:11:09.040Z,24.42
2024-04-15T05:12:09.006Z,24.42
2024-04-15T05:13:08.998Z,24.44
2024-04-15T05:14:08.984Z,24.42
2024-04-15T05:15:08.990Z,24.44
2024-04-15T05:16:09.001Z,24.42
2024-04-15T05:17:09.009Z,24.41
2024-04-15T05:18:09.125Z,24.42
2024-04-15T05:19:09.057Z,24.46
2024-04-15T05:20:08.995Z,24.42
2024-04-15T05:21:09.039Z,24.44
2024-04-15T05:22:09.038Z,24.44
2024-04-15T05:23:08.996Z,24.44
2024-04-15T05:24:09.002Z,24.42
2024-04-15T05:25:09.015Z,24.42
2024-04-15T05:26:08.996Z,24.44
2024-04-15T05:27:09.025Z,24.46
2024-04-15T05:28:09.066Z,24.48
2024-04-15T05:29:09.019Z,24.42
2024-04-15T05:30:09.021Z,24.47
2024-04-15T05:31:09.051Z,24.46
2024-04-15T05:32:09.084Z,24.46
2024-04-15T05:33:09.061Z,24.50
2024-04-15T05:34:09.062Z,24.46
2024-04-15T05:35:09.038Z,24.50
2024-04-15T05:36:09.024Z,24.48
2024-04-15T05:37:09.064Z,24.47
2024-04-15T05:38:09.048Z,24.50
2024-04-15T05:39:09.085Z,24.51
2024-04-15T05:40:09.101Z,24.50
2024-04-15T05:41:09.061Z,24.54
2024-04-15T05:42:09.044Z,24.52
2024-04-15T05:43:09.125Z,24.54
2024-04-15T05:44:09.118Z,24.55
2024-04-15T05:45:09.251Z,24.59
2024-04-15T05:46:09.394Z,24.61
2024-04-15T05:47:09.457Z,24.61
2024-04-15T05:48:09.822Z,24.64
2024-04-15T05:49:09.741Z,24.66
2024-04-15T05:50:09.768Z,24.69
2024-04-15T05:51:09.884Z,24.71
2024-04-15T05:52:10.013Z,24.72
2024-04-15T05:53:10.110Z,24.76
2024-04-15T05:54:10.209Z,24.81
2024-04-15T05:55:10.387Z,24.79
2024-04-15T05:56:10.434Z,24.85
2024-04-15T05:57:10.536Z,24.85
2024-04-15T05:58:10.682Z,24.90
2024-04-15T05:59:10.714Z,24.90
2024-04-15T06:00:10.831Z,24.94
2024-04-15T06:01:11.035Z,24.93
2024-04-15T06:02:11.116Z,24.93
2024-04-15T06:03:11.109Z,24.96
2024-04-15T06:04:11.196Z,25.02
2024-04-15T06:05:11.245Z,25.02
2024-04-15T06:06:11.314Z,25.03
2024-04-15T06:07:11.414Z,25.06
2024-04-15T06:08:12.079Z,25.10
2024-04-15T06:09:11.606Z,25.12
2024-04-15T06:10:11.750Z,25.13
2024-04-15T06:11:11.854Z,25.17
2024-04-15T06:12:11.823Z,25.19
2024-04-15T06:13:11.967Z,25.21
2024-04-15T06:14:11.946Z,25.23
2024-04-15T06:15:12.013Z,25.24
2024-04-15T06:16:12.181Z,25.24
2024-04-15T06:17:12.225Z,25.30
2024-04-15T06:18:12.297Z,25.33
2024-04-15T06:19:12.391Z,25.33
2024-04-15T06:20:12.425Z,25.34
2024-04-15T06:21:12.503Z,25.34
2024-04-15T06:22:12.693Z,25.36
2024-04-15T06:23:12.677Z,25.37
2024-04-15T06:24:12.798Z,25.36
2024-04-15T06:25:12.854Z,25.38
2024-04-15T06:26:12.930Z,25.41
2024-04-15T06:27:13.011Z,25.40
2024-04-15T06:28:13.092Z,25.41
2024-04-15T06:29:13.148Z,25.41
2024-04-15T06:30:13.208Z,25.40
2024-04-15T06:31:13.375Z,25.44
2024-04-15T06:32:13.541Z,25.44
2024-04-15T06:33:13.617Z,25.45
2024-04-15T06:34:13.712Z,25.42
2024-04-15T06:35:13.744Z,25.37
2024-04-15T06:36:13.824Z,25.38
2024-04-15T06:37:13.911Z,25.37
2024-04-15T06:38:14.008Z,25.36
2024-04-15T06:39:14.044Z,25.38
2024-04-15T06:40:14.141Z,25.33
2024-04-15T06:41:14.215Z,25.31
2024-04-15T06:42:14.307Z,25.31
2024-04-15T06:43:14.457Z,25.33
2024-04-15T06:44:14.532Z,25.30
2024-04-15T06:45:14.612Z,25.30
2024-04-15T06:46:14.832Z,25.30
2024-04-15T06:47:14.973Z,25.31
2024-04-15T06:48:14.934Z,25.31
2024-04-15T06:49:15.067Z,25.30
2024-04-15T06:50:15.138Z,25.27
2024-04-15T06:51:15.242Z,25.31
2024-04-15T06:52:15.410Z,25.27
2024-04-15T06:53:15.441Z,25.23
2024-04-15T06:54:15.573Z,25.23
2024-04-15T06:55:15.709Z,25.21
2024-04-15T06:56:15.749Z,25.21
2024-04-15T06:57:15.882Z,25.17
2024-04-15T06:58:16.063Z,25.14
2024-04-15T06:59:16.050Z,25.14
2024-04-15T07:00:16.117Z,25.13
2024-04-15T07:01:16.302Z,25.10
2024-04-15T07:02:16.490Z,25.10
2024-04-15T07:03:17.013Z,25.13
2024-04-15T07:04:16.547Z,25.13
2024-04-15T07:05:16.553Z,25.16
2024-04-15T07:06:16.641Z,25.20
2024-04-15T07:07:16.742Z,25.21
2024-04-15T07:08:16.817Z,25.23
2024-04-15T07:09:16.898Z,25.23
2024-04-15T07:10:16.988Z,25.26
2024-04-15T07:11:17.061Z,25.24
2024-04-15T07:12:17.129Z,25.26
2024-04-15T07:13:17.287Z,25.24
2024-04-15T07:14:17.290Z,25.29
2024-04-15T07:15:17.379Z,25.27
2024-04-15T07:16:17.592Z,25.29
2024-04-15T07:17:17.590Z,25.30
2024-04-15T07:18:17.681Z,25.31
2024-04-15T07:19:17.805Z,25.34
2024-04-15T07:20:17.826Z,25.37
2024-04-15T07:21:17.927Z,25.31
2024-04-15T07:22:18.038Z,25.31
2024-04-15T07:23:20.933Z,25.30
2024-04-15T07:24:18.093Z,25.29
2024-04-15T07:25:18.216Z,25.29
2024-04-15T07:26:18.067Z,25.26
2024-04-15T07:27:18.111Z,25.31
2024-04-15T07:28:18.139Z,25.27
2024-04-15T07:29:18.092Z,25.26
2024-04-15T07:30:18.093Z,25.29
2024-04-15T07:31:18.145Z,25.26
2024-04-15T07:32:18.130Z,25.30
2024-04-15T07:33:18.110Z,25.33
2024-04-15T07:34:18.175Z,25.31
2024-04-15T07:35:18.098Z,25.33
2024-04-15T07:36:18.094Z,25.34
2024-04-15T07:37:18.337Z,25.36
2024-04-15T07:38:18.154Z,25.37
2024-04-15T07:39:18.124Z,25.34
2024-04-15T07:40:18.198Z,25.37
2024-04-15T07:41:18.181Z,25.37
2024-04-15T07:42:25.205Z,25.40
2024-04-15T07:43:19.212Z,25.41
2024-04-15T07:44:18.148Z,25.44
2024-04-15T07:45:18.196Z,25.45
2024-04-15T07:46:20.165Z,25.48
2024-04-15T07:47:18.271Z,25.52
2024-04-15T07:48:18.157Z,25.52
2024-04-15T07:49:18.228Z,25.52
2024-04-15T07:50:18.172Z,25.61
2024-04-15T07:51:18.207Z,25.60
2024-04-15T07:52:18.228Z,25.62
2024-04-15T07:53:18.165Z,25.62
2024-04-15T07:54:18.148Z,25.65
2024-04-15T07:55:18.237Z,25.64
2024-04-15T07:56:18.156Z,25.66
2024-04-15T07:57:18.174Z,25.69
2024-04-15T07:58:18.195Z,25.68
2024-04-15T07:59:18.152Z,25.71
2024-04-15T08:00:18.194Z,25.69
2024-04-15T08:01:18.285Z,25.72
2024-04-15T08:02:18.314Z,25.72
2024-04-15T08:03:18.187Z,25.76
2024-04-15T08:04:18.300Z,25.75
2024-04-15T08:05:18.181Z,25.76
2024-04-15T08:06:18.205Z,25.75
2024-04-15T08:07:18.218Z,25.79
2024-04-15T08:08:18.205Z,25.81
2024-04-15T08:09:18.176Z,25.81
2024-04-15T08:10:18.238Z,25.81
2024-04-15T08:11:18.217Z,25.83
2024-04-15T08:12:18.184Z,25.83
2024-04-15T08:13:18.263Z,25.82
2024-04-15T08:14:18.198Z,25.86
2024-04-15T08:15:18.209Z,25.85
2024-04-15T08:16:18.326Z,25.86
2024-04-15T08:17:18.429Z,25.83
2024-04-15T08:18:18.446Z,25.86
2024-04-15T08:19:18.587Z,25.88
2024-04-15T08:20:18.666Z,25.88
2024-04-15T08:21:18.773Z,25.88
2024-04-15T08:22:18.975Z,25.89
2024-04-15T08:23:18.955Z,25.86
2024-04-15T08:24:19.046Z,25.86
2024-04-15T08:25:19.154Z,25.86
2024-04-15T08:26:19.263Z,25.86
2024-04-15T08:27:19.382Z,25.86
2024-04-15T08:28:19.584Z,25.88
2024-04-15T08:29:19.560Z,25.86
2024-04-15T08:30:19.671Z,25.88
2024-04-15T08:31:19.849Z,25.91
2024-04-15T08:32:19.859Z,25.91
2024-04-15T08:33:20.073Z,25.91
2024-04-15T08:34:20.171Z,25.92
2024-04-15T08:35:20.164Z,25.91
2024-04-15T08:36:20.250Z,25.93
2024-04-15T08:37:20.383Z,25.92
2024-04-15T08:38:20.447Z,25.92
2024-04-15T08:39:20.546Z,25.93
2024-04-15T08:40:20.782Z,25.88
2024-04-15T08:41:20.758Z,25.83
2024-04-15T08:42:20.902Z,25.83
2024-04-15T08:43:21.020Z,25.85
2024-04-15T08:44:20.985Z,25.85
2024-04-15T08:45:21.087Z,25.83
2024-04-15T08:46:21.195Z,25.85
2024-04-15T08:47:21.326Z,25.83
2024-04-15T08:48:21.321Z,25.85
2024-04-15T08:49:21.450Z,25.85
2024-04-15T08:50:21.514Z,25.86
2024-04-15T08:51:21.583Z,25.81
2024-04-15T08:52:21.739Z,25.81
2024-04-15T08:53:21.770Z,25.79
2024-04-15T08:54:21.837Z,25.81
2024-04-15T08:55:22.017Z,25.81
2024-04-15T08:56:22.005Z,25.79
2024-04-15T08:57:22.112Z,25.83
2024-04-15T08:58:22.334Z,25.85
2024-04-15T08:59:22.283Z,25.88
2024-04-15T09:00:22.368Z,25.92
2024-04-15T09:01:22.526Z,25.95
2024-04-15T09:02:22.588Z,25.97
2024-04-15T09:03:22.591Z,25.99
2024-04-15T09:04:22.734Z,26.00
2024-04-15T09:05:22.884Z,25.99
2024-04-15T09:06:22.862Z,25.99
2024-04-15T09:07:23.000Z,25.95
2024-04-15T09:08:23.164Z,25.93
2024-04-15T09:09:23.097Z,25.91
2024-04-15T09:10:23.289Z,25.92
2024-04-15T09:11:23.286Z,25.88
2024-04-15T09:12:23.356Z,25.88
2024-04-15T09:13:23.477Z,25.82
2024-04-15T09:14:23.503Z,25.85
2024-04-15T09:15:23.622Z,25.83
2024-04-15T09:16:23.769Z,25.82
2024-04-15T09:17:23.807Z,25.78
2024-04-15T09:18:23.859Z,25.78
2024-04-15T09:19:24.005Z,25.79
2024-04-15T09:20:35.141Z,25.76
2024-04-15T09:21:25.051Z,25.79
2024-04-15T09:22:24.085Z,25.82
2024-04-15T09:23:24.076Z,25.82
2024-04-15T09:24:24.036Z,25.81
2024-04-15T09:25:24.094Z,25.81
2024-04-15T09:26:24.042Z,25.82
2024-04-15T09:27:24.083Z,25.81
2024-04-15T09:28:24.197Z,25.82
2024-04-15T09:29:24.090Z,25.81
2024-04-15T09:30:24.096Z,25.83
2024-04-15T09:31:24.133Z,25.82
2024-04-15T09:32:24.143Z,25.86
2024-04-15T09:33:24.103Z,25.88
2024-04-15T09:34:24.239Z,25.88
2024-04-15T09:35:24.101Z,25.88
2024-04-15T09:36:24.097Z,25.89
2024-04-15T09:37:24.110Z,25.85
2024-04-15T09:38:24.103Z,25.89
2024-04-15T09:39:24.142Z,25.93
2024-04-15T09:40:24.245Z,25.91
2024-04-15T09:41:24.187Z,25.92
2024-04-15T09:42:24.251Z,25.89
2024-04-15T09:43:24.331Z,25.83
2024-04-15T09:44:24.391Z,25.83
2024-04-15T09:45:24.507Z,25.86
2024-04-15T09:46:24.633Z,25.89
2024-04-15T09:47:24.770Z,25.86
2024-04-15T09:48:24.839Z,25.86
2024-04-15T09:49:24.880Z,25.83
2024-04-15T09:50:24.915Z,25.85
2024-04-15T09:51:25.006Z,25.83
2024-04-15T09:52:25.114Z,25.81
2024-04-15T09:53:25.160Z,25.79
2024-04-15T09:54:25.265Z,25.78
2024-04-15T09:55:25.383Z,25.79
2024-04-15T09:56:25.413Z,25.78
2024-04-15T09:57:25.534Z,25.78
2024-04-15T09:58:25.736Z,25.79
2024-04-15T09:59:25.690Z,25.78
2024-04-15T10:00:26.673Z,25.79
2024-04-15T10:01:26.007Z,25.81
2024-04-15T10:02:26.006Z,25.81
2024-04-15T10:03:26.062Z,25.81
2024-04-15T10:04:26.184Z,25.83
2024-04-15T10:05:26.207Z,25.86
2024-04-15T10:06:26.254Z,25.85
2024-04-15T10:07:26.391Z,25.88
2024-04-15T10:08:26.419Z,25.88
2024-04-15T10:09:26.501Z,25.86
2024-04-15T10:10:26.656Z,25.85
2024-04-15T10:11:26.768Z,25.85
2024-04-15T10:12:26.802Z,25.82
2024-04-15T10:13:26.887Z,25.81
2024-04-15T10:14:26.941Z,25.79
2024-04-15T10:15:27.013Z,25.82
2024-04-15T10:16:36.854Z,25.78
2024-04-15T10:17:28.368Z,25.78
2024-04-15T10:18:27.243Z,25.79
2024-04-15T10:19:27.317Z,25.75
2024-04-15T10:20:27.327Z,25.78
2024-04-15T10:21:27.394Z,25.81
2024-04-15T10:22:27.491Z,25.76
2024-04-15T10:23:27.565Z,25.78
2024-04-15T10:24:27.649Z,25.79
2024-04-15T10:25:27.783Z,25.82
2024-04-15T10:26:27.817Z,25.82
2024-04-15T10:27:27.904Z,25.83
2024-04-15T10:28:28.049Z,25.83
2024-04-15T10:29:28.044Z,25.82
2024-04-15T10:30:28.143Z,25.83
2024-04-15T10:31:28.281Z,25.88
2024-04-15T10:32:28.382Z,25.85
2024-04-15T10:33:28.391Z,25.86
2024-04-15T10:34:28.544Z,25.86
2024-04-15T10:35:28.550Z,25.85
2024-04-15T10:36:28.618Z,25.88
2024-04-15T10:37:28.728Z,25.88
2024-04-15T10:38:28.776Z,25.85
2024-04-15T10:39:28.861Z,25.85
2024-04-15T10:40:30.060Z,25.86
2024-04-15T10:41:29.011Z,25.85
2024-04-15T10:42:29.079Z,25.91
2024-04-15T10:43:29.219Z,25.97
2024-04-15T10:44:29.267Z,25.97
2024-04-15T10:45:29.329Z,26.00
2024-04-15T10:46:29.463Z,26.00
2024-04-15T10:47:29.529Z,26.00
2024-04-15T10:48:29.623Z,26.00
2024-04-15T10:49:29.662Z,26.03
2024-04-15T10:50:29.720Z,26.06
2024-04-15T10:51:29.830Z,26.06
2024-04-15T10:52:29.911Z,26.13
2024-04-15T10:53:29.916Z,26.17
2024-04-15T10:54:30.020Z,26.19
2024-04-15T10:55:30.151Z,26.21
2024-04-15T10:56:30.195Z,26.24
2024-04-15T10:57:30.281Z,26.23
2024-04-15T10:58:30.351Z,26.26
2024-04-15T10:59:30.445Z,26.26
2024-04-15T11:00:30.575Z,26.31
2024-04-15T11:01:30.699Z,26.31
2024-04-15T11:02:30.838Z,26.30
2024-04-15T11:03:30.800Z,26.30
2024-04-15T11:04:30.960Z,26.31
2024-04-15T11:05:31.012Z,26.31
2024-04-15T11:06:31.071Z,26.33
2024-04-15T11:07:31.256Z,26.34
2024-04-15T11:08:31.277Z,26.36
2024-04-15T11:09:31.343Z,26.36
2024-04-15T11:10:31.452Z,26.38
2024-04-15T11:11:31.576Z,26.41
2024-04-15T11:12:31.566Z,26.41
2024-04-15T11:13:31.706Z,26.41
2024-04-15T11:14:31.705Z,26.47
2024-04-15T11:15:31.802Z,26.48
2024-04-15T11:16:31.958Z,26.48
2024-04-15T11:17:32.014Z,26.51
2024-04-15T11:18:31.949Z,26.50
2024-04-15T11:19:32.078Z,26.51
2024-04-15T11:20:32.084Z,26.52
2024-04-15T11:21:32.185Z,26.51
2024-04-15T11:22:33.614Z,26.51
2024-04-15T11:23:32.274Z,26.47
2024-04-15T11:24:32.291Z,26.47
2024-04-15T11:25:32.364Z,26.47
2024-04-15T11:26:32.365Z,26.46
2024-04-15T11:27:32.403Z,26.48
2024-04-15T11:28:32.531Z,26.46
2024-04-15T11:29:34.344Z,26.50
2024-04-15T11:30:32.441Z,26.51
2024-04-15T11:31:32.474Z,26.51
2024-04-15T11:32:32.550Z,26.48
2024-04-15T11:33:32.587Z,26.46
2024-04-15T11:34:32.591Z,26.41
2024-04-15T11:35:32.513Z,26.38
2024-04-15T11:36:32.497Z,26.33
2024-04-15T11:37:32.656Z,26.24
2024-04-15T11:38:32.540Z,26.17
2024-04-15T11:39:32.504Z,26.16
2024-04-15T11:40:32.736Z,26.10
2024-04-15T11:41:32.544Z,26.07
2024-04-15T11:42:32.731Z,26.02
2024-04-15T11:43:32.537Z,26.03
2024-04-15T11:44:32.524Z,25.97
2024-04-15T11:45:32.534Z,25.93
2024-04-15T11:46:32.686Z,25.91
2024-04-15T11:47:32.589Z,25.86
2024-04-15T11:48:32.531Z,25.89
2024-04-15T11:49:32.588Z,25.91
2024-04-15T11:50:32.523Z,25.93
2024-04-15T11:51:32.552Z,25.92
2024-04-15T11:52:32.595Z,25.96
2024-04-15T11:53:32.545Z,25.96
2024-04-15T11:54:32.538Z,25.93
2024-04-15T11:55:32.626Z,25.97
2024-04-15T11:56:32.592Z,25.97
2024-04-15T11:57:32.566Z,25.97
2024-04-15T11:58:32.660Z,25.97
2024-04-15T11:59:32.583Z,25.99
2024-04-15T12:00:32.643Z,25.97
2024-04-15T12:01:32.672Z,25.99
2024-04-15T12:02:32.594Z,25.97
2024-04-15T12:03:32.619Z,26.02
2024-04-15T12:04:32.889Z,25.99
2024-04-15T12:05:32.680Z,25.97
2024-04-15T12:06:32.587Z,26.00
2024-04-15T12:07:32.654Z,25.96
2024-04-15T12:08:32.588Z,25.97
2024-04-15T12:09:32.610Z,25.99
2024-04-15T12:10:32.693Z,25.96
2024-04-15T12:11:32.634Z,25.96
2024-04-15T12:12:32.706Z,25.95
2024-04-15T12:13:32.719Z,25.97
2024-04-15T12:14:32.738Z,25.97
2024-04-15T12:15:32.860Z,25.99
2024-04-15T12:16:32.983Z,25.97
2024-04-15T12:17:33.059Z,25.96
2024-04-15T12:18:33.070Z,25.96
2024-04-15T12:19:33.170Z,25.97
2024-04-15T12:20:33.236Z,25.96
2024-04-15T12:21:35.400Z,25.96
2024-04-15T12:22:33.396Z,25.96
2024-04-15T12:23:33.360Z,25.96
2024-04-15T12:24:33.467Z,25.97
2024-04-15T12:25:33.532Z,25.97
2024-04-15T12:26:33.573Z,25.93
2024-04-15T12:27:36.153Z,25.95
2024-04-15T12:28:33.675Z,25.95
2024-04-15T12:29:33.684Z,25.95
2024-04-15T12:30:33.787Z,25.92
2024-04-15T12:31:33.672Z,25.93
2024-04-15T12:32:33.746Z,25.93
2024-04-15T12:33:35.475Z,25.93
2024-04-15T12:34:33.691Z,25.93
2024-04-15T12:35:33.660Z,25.92
2024-04-15T12:36:33.668Z,25.91
2024-04-15T12:37:33.690Z,25.91
2024-04-15T12:38:33.697Z,25.88
2024-04-15T12:39:33.702Z,25.91
2024-04-15T12:40:33.755Z,25.88
2024-04-15T12:41:33.696Z,25.89
2024-04-15T12:42:33.716Z,25.85
2024-04-15T12:43:33.722Z,25.86
2024-04-15T12:44:33.684Z,25.85
2024-04-15T12:45:33.690Z,25.83
2024-04-15T12:46:33.755Z,25.83
2024-04-15T12:47:33.962Z,25.81
2024-04-15T12:48:33.799Z,25.81
2024-04-15T12:49:34.306Z,25.78
2024-04-15T12:50:33.887Z,25.78
2024-04-15T12:51:33.975Z,25.79
2024-04-15T12:52:34.162Z,25.78
2024-04-15T12:53:34.178Z,25.78